Time;durP1;ratioP1;P1;durP2;ratioP2;P2;SDS_P1;SDS_P2;PMS_P1;PMS_P2;Temp;Humidity;BMP_temperature;BMP_pressure;BME280_temperature;BME280_humidity;BME280_pressure;Samples;Min_cycle;Max_cycle;Signal;HPM_P1;HPM_P2
2022/06/23 00:02:07;;;;;;;;;;;15.60;99.90;;;;;;4994558;28;19913;-57
2022/06/23 00:04:40;;;;;;;;;;;15.50;99.90;;;;;;4994907;28;19909;-59
2022/06/23 00:07:12;;;;;;;;;;;15.50;99.90;;;;;;4994925;28;20329;-56
2022/06/23 00:09:38;;;;;;;;;;;15.50;99.90;;;;;;4993675;28;20004;-58
2022/06/23 00:12:19;;;;;;;;;;;15.50;99.90;;;;;;4994594;28;20410;-58
2022/06/23 00:14:45;;;;;;;;;;;15.40;99.90;;;;;;4993628;28;20371;-58
2022/06/23 00:17:15;;;;;;;;;;;15.50;99.90;;;;;;4995002;28;20405;-59
2022/06/23 00:19:40;;;;;;;;;;;15.40;99.90;;;;;;4993043;28;19906;-59
2022/06/23 00:22:08;;;;;;;;;;;15.40;99.90;;;;;;4994730;28;20366;-59
2022/06/23 00:24:33;;;;;;;;;;;15.40;99.90;;;;;;4990708;28;20060;-58
2022/06/23 00:26:59;;;;;;;;;;;15.40;99.90;;;;;;4994959;28;19956;-58
2022/06/23 00:29:25;;;;;;;;;;;15.40;99.90;;;;;;4994860;28;19906;-58
2022/06/23 00:31:55;;;;;;;;;;;15.30;99.90;;;;;;4998995;28;19928;-59
2022/06/23 00:34:24;;;;;;;;;;;15.30;99.90;;;;;;4997995;28;19910;-59
2022/06/23 00:36:54;;;;;;;;;;;15.30;99.90;;;;;;4997069;28;20005;-57
2022/06/23 00:39:19;;;;;;;;;;;15.20;99.90;;;;;;4997151;28;20370;-58
2022/06/23 00:41:46;;;;;;;;;;;15.20;99.90;;;;;;4996229;28;19912;-59
2022/06/23 00:44:18;;;;;;;;;;;15.20;99.90;;;;;;5002508;28;19909;-59
2022/06/23 00:46:46;;;;;;;;;;;15.30;99.90;;;;;;4994259;28;19909;-58
2022/06/23 00:49:26;;;;;;;;;;;15.30;99.90;;;;;;4994549;28;19984;-59
2022/06/23 00:51:57;;;;;;;;;;;15.20;99.90;;;;;;4993249;28;19920;-58
2022/06/23 00:54:31;;;;;;;;;;;15.30;99.90;;;;;;4994964;28;19912;-58
2022/06/23 00:57:03;;;;;;;;;;;15.20;99.90;;;;;;4992482;28;19906;-59
2022/06/23 00:59:58;;;;;;;;;;;15.20;99.90;;;;;;4992993;28;19905;-58
2022/06/23 01:02:27;;;;;;;;;;;15.20;99.90;;;;;;4983299;28;19905;-58
2022/06/23 01:04:58;;;;;;;;;;;15.10;99.90;;;;;;4992670;28;19913;-59
2022/06/23 01:07:24;;;;;;;;;;;15.10;99.90;;;;;;4992099;28;19912;-58
2022/06/23 01:09:59;;;;;;;;;;;15.10;99.90;;;;;;4993239;28;19906;-59
2022/06/23 01:12:24;;;;;;;;;;;15.10;99.90;;;;;;4991797;28;20272;-58
2022/06/23 01:14:55;;;;;;;;;;;15.10;99.90;;;;;;4993998;28;19912;-58
2022/06/23 01:17:24;;;;;;;;;;;15.00;99.90;;;;;;4993719;28;19913;-59
2022/06/23 01:20:16;;;;;;;;;;;15.00;99.90;;;;;;4993669;28;19909;-60
2022/06/23 01:22:48;;;;;;;;;;;15.00;99.90;;;;;;4991408;28;19906;-59
2022/06/23 01:25:16;;;;;;;;;;;14.90;99.90;;;;;;4992191;28;19913;-58
2022/06/23 01:27:55;;;;;;;;;;;14.80;99.90;;;;;;4993898;28;19978;-60
2022/06/23 01:30:21;;;;;;;;;;;14.80;99.90;;;;;;4993358;28;20033;-56
2022/06/23 01:33:02;;;;;;;;;;;14.80;99.90;;;;;;4993909;28;19928;-59
2022/06/23 01:35:29;;;;;;;;;;;14.70;99.90;;;;;;4992191;28;19909;-60
2022/06/23 01:38:10;;;;;;;;;;;14.70;99.90;;;;;;4991927;28;19906;-58
2022/06/23 01:40:55;;;;;;;;;;;14.70;99.90;;;;;;4993395;28;19989;-59
2022/06/23 01:43:24;;;;;;;;;;;14.70;99.90;;;;;;4996636;28;19910;-58
2022/06/23 01:46:00;;;;;;;;;;;14.70;99.90;;;;;;4995985;28;19909;-58
2022/06/23 01:48:59;;;;;;;;;;;14.60;99.90;;;;;;5018598;22;20418;-53
2022/06/23 01:51:24;;;;;;;;;;;14.60;99.90;;;;;;5005149;28;19905;-54
2022/06/23 01:53:51;;;;;;;;;;;14.60;99.90;;;;;;5004010;28;19906;-53
2022/06/23 01:56:25;;;;;;;;;;;14.60;99.90;;;;;;5003928;28;19984;-53
2022/06/23 01:59:12;;;;;;;;;;;14.60;99.90;;;;;;5005485;28;20229;-49
2022/06/23 02:01:50;;;;;;;;;;;14.60;99.90;;;;;;5006169;28;19906;-49
2022/06/23 02:04:18;;;;;;;;;;;14.60;99.90;;;;;;5004731;28;19909;-53
2022/06/23 02:06:47;;;;;;;;;;;14.60;99.90;;;;;;5006543;28;20279;-50
2022/06/23 02:09:24;;;;;;;;;;;14.60;99.90;;;;;;5005967;28;19906;-54
2022/06/23 02:11:51;;;;;;;;;;;14.50;99.90;;;;;;5004261;28;19914;-55
2022/06/23 02:14:22;;;;;;;;;;;14.60;99.90;;;;;;5005792;28;19917;-55
2022/06/23 02:17:01;;;;;;;;;;;14.50;99.90;;;;;;5004483;28;19909;-55
2022/06/23 02:19:34;;;;;;;;;;;14.50;99.90;;;;;;5003952;28;19906;-53
2022/06/23 02:22:02;;;;;;;;;;;14.50;99.90;;;;;;5004695;28;19906;-55
2022/06/23 02:24:27;;;;;;;;;;;14.50;99.90;;;;;;5005414;28;19916;-52
2022/06/23 02:26:53;;;;;;;;;;;14.40;99.90;;;;;;5005080;28;19906;-51
2022/06/23 02:29:21;;;;;;;;;;;14.40;99.90;;;;;;5005061;28;19953;-49
2022/06/23 02:31:50;;;;;;;;;;;14.40;99.90;;;;;;5003654;28;19912;-51
2022/06/23 02:34:18;;;;;;;;;;;14.40;99.90;;;;;;5004934;28;20008;-54
2022/06/23 02:36:56;;;;;;;;;;;14.40;99.90;;;;;;5005008;28;19906;-55
2022/06/23 02:39:28;;;;;;;;;;;14.40;99.90;;;;;;5004982;28;20008;-55
2022/06/23 02:41:57;;;;;;;;;;;14.40;99.90;;;;;;5005123;28;20294;-49
2022/06/23 02:44:55;;;;;;;;;;;14.30;99.90;;;;;;5004578;28;19912;-48
2022/06/23 02:47:29;;;;;;;;;;;14.30;99.90;;;;;;4980282;28;19909;-49
2022/06/23 02:50:13;;;;;;;;;;;14.30;99.90;;;;;;5003036;28;19914;-48
2022/06/23 02:52:57;;;;;;;;;;;14.30;99.90;;;;;;5004502;28;19911;-54
2022/06/23 02:55:41;;;;;;;;;;;14.30;99.90;;;;;;5005273;28;19991;-52
2022/06/23 02:58:12;;;;;;;;;;;14.30;99.90;;;;;;5004279;28;19906;-52
2022/06/23 03:00:46;;;;;;;;;;;14.30;99.90;;;;;;5004853;28;19959;-55
2022/06/23 03:03:24;;;;;;;;;;;14.30;99.90;;;;;;5003310;28;20052;-51
2022/06/23 03:06:00;;;;;;;;;;;14.30;99.90;;;;;;5004515;28;19963;-49
2022/06/23 03:08:38;;;;;;;;;;;14.30;99.90;;;;;;5003025;28;19910;-52
2022/06/23 03:11:06;;;;;;;;;;;14.30;99.90;;;;;;5004491;28;19906;-50
2022/06/23 03:13:35;;;;;;;;;;;14.20;99.90;;;;;;5004651;28;19906;-54
2022/06/23 03:16:21;;;;;;;;;;;14.20;99.90;;;;;;5004767;28;19906;-54
2022/06/23 03:18:54;;;;;;;;;;;14.20;99.90;;;;;;5003728;28;19913;-53
2022/06/23 03:21:22;;;;;;;;;;;14.20;99.90;;;;;;5004636;28;19905;-54
2022/06/23 03:24:08;;;;;;;;;;;14.20;99.90;;;;;;5004670;28;19905;-54
2022/06/23 03:26:44;;;;;;;;;;;14.20;99.90;;;;;;5003860;28;19917;-49
2022/06/23 03:29:11;;;;;;;;;;;14.20;99.90;;;;;;4994813;28;19975;-54
2022/06/23 03:31:43;;;;;;;;;;;14.10;99.90;;;;;;4995142;28;19906;-50
2022/06/23 03:34:34;;;;;;;;;;;14.10;99.90;;;;;;4995025;28;19913;-50
2022/06/23 03:37:02;;;;;;;;;;;14.10;99.90;;;;;;4986998;28;20294;-49
2022/06/23 03:42:31;;;;;;;;;;;14.00;99.90;;;;;;4995287;28;20337;-50
2022/06/23 03:45:19;;;;;;;;;;;14.10;99.90;;;;;;4995140;28;19910;-50
2022/06/23 03:48:03;;;;;;;;;;;14.10;99.90;;;;;;4995232;28;19909;-50
2022/06/23 03:50:35;;;;;;;;;;;14.10;99.90;;;;;;4994969;28;19916;-51
2022/06/23 03:53:07;;;;;;;;;;;14.10;99.90;;;;;;4995087;28;20369;-52
2022/06/23 03:55:46;;;;;;;;;;;14.10;99.90;;;;;;4995102;28;20382;-54
2022/06/23 03:58:16;;;;;;;;;;;14.00;99.90;;;;;;4995201;28;19961;-50
2022/06/23 04:00:45;;;;;;;;;;;14.10;99.90;;;;;;4995163;28;19912;-52
2022/06/23 04:03:29;;;;;;;;;;;14.10;99.90;;;;;;4994748;28;19913;-55
2022/06/23 04:05:54;;;;;;;;;;;14.10;99.90;;;;;;4994617;28;19916;-50
2022/06/23 04:08:21;;;;;;;;;;;14.10;99.90;;;;;;4993344;28;20000;-49
2022/06/23 04:10:46;;;;;;;;;;;14.20;99.90;;;;;;4994716;28;20393;-49
2022/06/23 04:13:32;;;;;;;;;;;14.20;99.90;;;;;;4994449;28;19992;-51
2022/06/23 04:16:08;;;;;;;;;;;14.30;99.90;;;;;;4994117;28;19906;-50
2022/06/23 04:18:38;;;;;;;;;;;14.30;99.90;;;;;;4994597;28;20426;-51
2022/06/23 04:21:07;;;;;;;;;;;14.40;99.90;;;;;;4993980;28;19953;-50
2022/06/23 04:23:34;;;;;;;;;;;14.40;99.90;;;;;;4996051;28;19906;-54
2022/06/23 04:26:11;;;;;;;;;;;14.40;99.90;;;;;;4996861;28;19979;-52
2022/06/23 04:28:42;;;;;;;;;;;14.50;99.90;;;;;;4994315;28;19971;-51
2022/06/23 04:31:12;;;;;;;;;;;14.60;99.90;;;;;;4995383;28;20369;-49
2022/06/23 04:33:39;;;;;;;;;;;14.60;99.90;;;;;;4994151;28;19928;-51
2022/06/23 04:36:06;;;;;;;;;;;14.60;99.90;;;;;;4994498;28;19906;-50
2022/06/23 04:38:39;;;;;;;;;;;14.60;99.90;;;;;;4994229;28;19905;-53
2022/06/23 04:41:11;;;;;;;;;;;14.70;99.90;;;;;;4994354;28;20015;-50
2022/06/23 04:43:40;;;;;;;;;;;14.80;99.90;;;;;;4994168;28;20373;-50
2022/06/23 04:46:10;;;;;;;;;;;14.90;99.90;;;;;;4995058;28;20336;-51
2022/06/23 04:48:36;;;;;;;;;;;15.00;99.90;;;;;;4994244;28;20342;-50
2022/06/23 04:51:07;;;;;;;;;;;15.10;99.90;;;;;;4994128;28;19905;-49
2022/06/23 04:53:37;;;;;;;;;;;15.10;99.90;;;;;;4994091;28;19913;-48
2022/06/23 04:56:29;;;;;;;;;;;15.20;99.90;;;;;;4994198;28;19912;-50
2022/06/23 04:59:00;;;;;;;;;;;15.40;99.90;;;;;;4985807;28;20383;-55
2022/06/23 05:01:27;;;;;;;;;;;15.50;99.90;;;;;;4993905;28;19910;-53
2022/06/23 05:03:55;;;;;;;;;;;15.60;99.90;;;;;;4994145;28;19906;-55
2022/06/23 05:06:33;;;;;;;;;;;15.60;99.90;;;;;;4993771;28;19913;-50
2022/06/23 05:09:01;;;;;;;;;;;15.70;99.90;;;;;;4994137;28;19906;-51
2022/06/23 05:11:33;;;;;;;;;;;15.90;99.90;;;;;;4994719;28;19980;-53
2022/06/23 05:14:01;;;;;;;;;;;16.10;99.90;;;;;;4993737;28;19912;-52
2022/06/23 05:16:28;;;;;;;;;;;16.20;99.90;;;;;;4995835;28;19913;-51
2022/06/23 05:18:55;;;;;;;;;;;16.40;99.90;;;;;;4994970;28;19996;-52
2022/06/23 05:21:21;;;;;;;;;;;16.50;99.90;;;;;;4997534;28;19906;-50
2022/06/23 05:23:52;;;;;;;;;;;16.50;99.90;;;;;;4997081;28;20294;-53
2022/06/23 05:26:28;;;;;;;;;;;16.60;99.90;;;;;;4997462;28;19957;-54
2022/06/23 05:29:02;;;;;;;;;;;16.70;99.90;;;;;;4998216;28;19915;-55
2022/06/23 05:31:31;;;;;;;;;;;16.80;99.90;;;;;;4997578;28;19913;-50
2022/06/23 05:34:00;;;;;;;;;;;16.90;99.90;;;;;;4997270;28;20043;-52
2022/06/23 05:36:27;;;;;;;;;;;17.10;99.90;;;;;;4997657;28;19946;-49
2022/06/23 05:39:02;;;;;;;;;;;17.10;99.90;;;;;;4995238;28;19999;-49
2022/06/23 05:41:44;;;;;;;;;;;17.20;99.90;;;;;;4995282;28;19910;-54
2022/06/23 05:44:22;;;;;;;;;;;17.30;99.90;;;;;;4992933;28;19931;-50
2022/06/23 05:46:48;;;;;;;;;;;17.40;99.90;;;;;;4993385;28;20359;-52
2022/06/23 05:49:13;;;;;;;;;;;17.50;99.90;;;;;;4996758;28;19920;-55
2022/06/23 05:51:42;;;;;;;;;;;17.50;99.90;;;;;;4997710;28;19905;-53
2022/06/23 05:54:15;;;;;;;;;;;17.60;99.90;;;;;;4995254;28;20366;-50
2022/06/23 05:56:41;;;;;;;;;;;17.70;99.90;;;;;;4996771;28;19916;-55
2022/06/23 05:59:20;;;;;;;;;;;17.70;99.90;;;;;;4997334;28;19906;-52
2022/06/23 06:01:48;;;;;;;;;;;17.80;99.90;;;;;;4995799;28;19917;-50
2022/06/23 06:04:16;;;;;;;;;;;17.90;99.90;;;;;;4996837;28;20359;-52
2022/06/23 06:06:42;;;;;;;;;;;18.10;99.90;;;;;;4996726;28;20335;-50
2022/06/23 06:11:57;;;;;;;;;;;18.30;99.90;;;;;;4996675;28;19913;-49
2022/06/23 06:14:26;;;;;;;;;;;18.40;99.90;;;;;;4996560;28;19906;-52
2022/06/23 06:16:52;;;;;;;;;;;18.50;99.90;;;;;;4996710;28;19906;-50
2022/06/23 06:19:19;;;;;;;;;;;18.60;99.90;;;;;;4996771;28;20000;-55
2022/06/23 06:21:46;;;;;;;;;;;18.80;99.90;;;;;;4996431;28;19912;-54
2022/06/23 06:24:34;;;;;;;;;;;18.90;99.90;;;;;;4995439;28;19916;-51
2022/06/23 06:27:01;;;;;;;;;;;19.00;99.90;;;;;;4995948;28;20204;-54
2022/06/23 06:29:31;;;;;;;;;;;19.10;99.90;;;;;;4994434;28;19932;-51
2022/06/23 06:31:59;;;;;;;;;;;19.20;99.90;;;;;;4995710;28;19967;-50
2022/06/23 06:34:34;;;;;;;;;;;19.30;99.90;;;;;;4996027;28;19977;-53
2022/06/23 06:36:59;;;;;;;;;;;19.40;99.90;;;;;;4996133;28;19906;-51
2022/06/23 06:39:28;;;;;;;;;;;19.60;99.90;;;;;;4995893;28;19917;-51
2022/06/23 06:41:57;;;;;;;;;;;19.70;99.90;;;;;;4996219;28;20374;-52
2022/06/23 06:44:22;;;;;;;;;;;19.80;99.90;;;;;;4995918;28;19906;-52
2022/06/23 06:46:48;;;;;;;;;;;19.90;99.90;;;;;;4996103;28;20272;-53
2022/06/23 06:49:19;;;;;;;;;;;20.10;99.90;;;;;;4996107;28;20268;-51
2022/06/23 06:51:45;;;;;;;;;;;20.20;99.90;;;;;;4996313;28;19955;-53
2022/06/23 06:54:22;;;;;;;;;;;20.20;99.90;;;;;;4995869;28;19906;-51
2022/06/23 06:56:50;;;;;;;;;;;20.30;99.90;;;;;;4996302;28;19906;-51
2022/06/23 06:59:19;;;;;;;;;;;20.40;99.90;;;;;;4995784;28;19955;-52
2022/06/23 07:01:48;;;;;;;;;;;20.50;99.90;;;;;;4995555;28;19910;-52
2022/06/23 07:04:15;;;;;;;;;;;20.60;99.90;;;;;;4995617;28;19928;-54
2022/06/23 07:06:43;;;;;;;;;;;20.70;99.90;;;;;;4995917;28;20274;-52
2022/06/23 07:09:24;;;;;;;;;;;20.80;99.90;;;;;;4995872;28;19910;-53
2022/06/23 07:11:53;;;;;;;;;;;21.00;99.90;;;;;;4995901;28;19953;-54
2022/06/23 07:14:34;;;;;;;;;;;21.10;99.90;;;;;;4995601;28;20338;-51
2022/06/23 07:16:59;;;;;;;;;;;21.20;99.90;;;;;;4995750;28;19913;-55
2022/06/23 07:19:34;;;;;;;;;;;21.30;99.90;;;;;;4994197;28;19910;-51
2022/06/23 07:22:14;;;;;;;;;;;21.40;99.90;;;;;;4995582;28;19905;-53
2022/06/23 07:24:43;;;;;;;;;;;21.50;99.90;;;;;;4995169;28;19913;-50
2022/06/23 07:27:16;;;;;;;;;;;21.60;99.90;;;;;;4995785;28;19957;-50
2022/06/23 07:29:44;;;;;;;;;;;21.80;99.90;;;;;;4995940;28;19906;-53
2022/06/23 07:32:22;;;;;;;;;;;21.90;99.90;;;;;;4995498;28;19948;-52
2022/06/23 07:34:50;;;;;;;;;;;22.00;99.90;;;;;;4995657;28;19933;-50
2022/06/23 07:37:16;;;;;;;;;;;22.10;99.90;;;;;;4995147;28;20364;-49
2022/06/23 07:39:41;;;;;;;;;;;22.20;99.90;;;;;;4995114;28;19942;-55
2022/06/23 07:42:20;;;;;;;;;;;22.30;99.90;;;;;;4993867;28;19910;-56
2022/06/23 07:44:50;;;;;;;;;;;22.40;99.90;;;;;;4994920;28;19940;-56
2022/06/23 07:47:19;;;;;;;;;;;22.50;99.90;;;;;;4995267;28;19910;-55
2022/06/23 07:49:44;;;;;;;;;;;22.60;99.90;;;;;;5020922;22;19980;-77
2022/06/23 07:52:17;;;;;;;;;;;22.70;99.90;;;;;;4998204;28;19909;-78
2022/06/23 07:54:43;;;;;;;;;;;22.70;99.90;;;;;;4997996;28;20366;-78
2022/06/23 07:57:12;;;;;;;;;;;22.80;99.90;;;;;;4997317;28;19912;-78
2022/06/23 07:59:48;;;;;;;;;;;22.90;99.90;;;;;;4996649;28;19964;-79
2022/06/23 08:02:25;;;;;;;;;;;23.00;99.90;;;;;;4997363;28;20260;-79
2022/06/23 08:05:00;;;;;;;;;;;23.10;99.90;;;;;;4998734;28;19910;-79
2022/06/23 08:07:26;;;;;;;;;;;23.20;99.90;;;;;;4998641;28;20373;-80
2022/06/23 08:09:54;;;;;;;;;;;23.30;99.90;;;;;;4998689;28;19906;-79
2022/06/23 08:12:58;;;;;;;;;;;23.50;99.90;;;;;;4999272;28;19929;-79
2022/06/23 08:18:29;;;;;;;;;;;23.70;99.90;;;;;;4997519;28;19912;-78
2022/06/23 08:21:00;;;;;;;;;;;23.80;99.90;;;;;;5000005;28;19917;-78
2022/06/23 08:23:26;;;;;;;;;;;23.90;99.90;;;;;;4998920;28;20062;-78
2022/06/23 08:25:52;;;;;;;;;;;23.90;99.90;;;;;;4998191;28;19913;-80
2022/06/23 08:28:18;;;;;;;;;;;24.00;99.90;;;;;;4998128;28;19996;-79
2022/06/23 08:30:46;;;;;;;;;;;24.10;99.90;;;;;;4998042;28;19995;-78
2022/06/23 08:33:12;;;;;;;;;;;24.20;99.90;;;;;;4997575;28;19972;-78
2022/06/23 08:35:42;;;;;;;;;;;24.30;99.90;;;;;;4997102;28;19910;-78
2022/06/23 08:38:09;;;;;;;;;;;24.40;99.90;;;;;;4996660;28;19910;-78
2022/06/23 08:40:42;;;;;;;;;;;24.50;99.90;;;;;;4996828;28;19910;-78
2022/06/23 08:43:31;;;;;;;;;;;24.60;99.90;;;;;;5013177;28;19989;-78
2022/06/23 08:45:57;;;;;;;;;;;24.70;99.90;;;;;;4987236;28;19916;-78
2022/06/23 08:48:37;;;;;;;;;;;24.80;99.90;;;;;;4997877;28;19985;-78
2022/06/23 08:51:08;;;;;;;;;;;24.90;99.90;;;;;;4996884;28;19996;-79
2022/06/23 08:53:53;;;;;;;;;;;25.00;99.90;;;;;;4995359;28;19955;-79
2022/06/23 08:56:26;;;;;;;;;;;25.00;99.90;;;;;;4997619;28;20001;-77
2022/06/23 08:58:54;;;;;;;;;;;25.00;99.90;;;;;;4997521;28;20044;-78
2022/06/23 09:01:23;;;;;;;;;;;25.10;99.90;;;;;;4997591;28;19906;-79
2022/06/23 09:03:56;;;;;;;;;;;25.30;99.90;;;;;;4998051;28;19906;-79
2022/06/23 09:06:31;;;;;;;;;;;25.30;99.90;;;;;;4996129;28;19910;-79
2022/06/23 09:09:19;;;;;;;;;;;25.30;99.90;;;;;;4997906;28;19905;-79
2022/06/23 09:11:59;;;;;;;;;;;25.40;99.90;;;;;;4998763;28;19976;-79
2022/06/23 09:14:34;;;;;;;;;;;25.50;99.90;;;;;;4997813;28;19956;-79
2022/06/23 09:17:04;;;;;;;;;;;25.60;99.90;;;;;;4998031;28;19913;-79
2022/06/23 09:19:33;;;;;;;;;;;25.70;99.90;;;;;;4997915;28;19977;-78
2022/06/23 09:22:10;;;;;;;;;;;25.80;99.90;;;;;;4998540;28;19906;-79
2022/06/23 09:24:36;;;;;;;;;;;25.80;99.90;;;;;;4998491;28;19906;-79
2022/06/23 09:27:01;;;;;;;;;;;25.90;99.90;;;;;;5001427;28;19912;-78
2022/06/23 09:29:37;;;;;;;;;;;26.10;99.90;;;;;;4998058;28;20338;-78
2022/06/23 09:32:08;;;;;;;;;;;26.20;99.90;;;;;;4998104;28;20283;-79
2022/06/23 09:34:49;;;;;;;;;;;26.30;99.90;;;;;;4998576;28;19905;-78
2022/06/23 09:37:17;;;;;;;;;;;26.40;99.90;;;;;;5000176;28;19910;-77
2022/06/23 09:39:58;;;;;;;;;;;26.50;99.90;;;;;;4999997;28;19906;-78
2022/06/23 09:42:26;;;;;;;;;;;26.50;99.90;;;;;;5000826;28;19906;-78
2022/06/23 09:45:09;;;;;;;;;;;26.70;98.30;;;;;;5001290;28;19929;-78
2022/06/23 09:47:58;;;;;;;;;;;26.80;98.20;;;;;;4997372;28;19917;-78
2022/06/23 09:50:33;;;;;;;;;;;26.80;98.30;;;;;;4996104;28;19902;-77
2022/06/23 09:52:58;;;;;;;;;;;27.00;97.80;;;;;;4997205;28;19913;-79
2022/06/23 09:55:24;;;;;;;;;;;27.10;96.80;;;;;;4996234;28;19913;-79
2022/06/23 09:58:05;;;;;;;;;;;27.30;96.10;;;;;;5019173;28;19905;-79
2022/06/23 10:00:59;;;;;;;;;;;27.40;95.90;;;;;;4994766;28;19906;-79
2022/06/23 10:03:31;;;;;;;;;;;27.30;95.60;;;;;;4993740;28;19989;-80
2022/06/23 10:06:02;;;;;;;;;;;27.30;95.70;;;;;;4999873;28;19920;-80
2022/06/23 10:08:37;;;;;;;;;;;27.30;95.30;;;;;;5000064;28;19906;-78
2022/06/23 10:11:19;;;;;;;;;;;27.40;94.70;;;;;;5000387;28;20283;-79
2022/06/23 10:13:44;;;;;;;;;;;27.40;94.40;;;;;;5000046;28;19910;-78
2022/06/23 10:16:12;;;;;;;;;;;27.40;94.70;;;;;;5000740;28;20032;-79
2022/06/23 10:18:56;;;;;;;;;;;27.40;93.60;;;;;;5000129;28;20429;-78
2022/06/23 10:21:32;;;;;;;;;;;27.50;92.90;;;;;;5000232;28;19906;-78
2022/06/23 10:24:00;;;;;;;;;;;27.50;93.00;;;;;;4998492;28;20338;-78
2022/06/23 10:26:35;;;;;;;;;;;27.50;92.00;;;;;;4998237;28;19953;-78
2022/06/23 10:29:08;;;;;;;;;;;27.60;92.10;;;;;;4996492;28;19910;-78
2022/06/23 10:31:51;;;;;;;;;;;27.60;91.30;;;;;;4998485;28;19928;-78
2022/06/23 10:34:19;;;;;;;;;;;27.60;91.70;;;;;;4998185;28;20307;-79
2022/06/23 10:37:00;;;;;;;;;;;27.70;91.50;;;;;;4998925;28;19909;-76
2022/06/23 10:39:48;;;;;;;;;;;27.80;91.30;;;;;;5020403;28;19905;-77
2022/06/23 10:42:22;;;;;;;;;;;27.90;91.20;;;;;;4997930;28;20000;-77
2022/06/23 10:45:06;;;;;;;;;;;27.90;91.20;;;;;;4997788;28;19906;-77
2022/06/23 10:47:41;;;;;;;;;;;28.00;91.00;;;;;;5030328;28;19906;-78
2022/06/23 10:50:21;;;;;;;;;;;28.00;90.80;;;;;;4998682;28;19914;-78
2022/06/23 10:53:10;;;;;;;;;;;28.00;90.50;;;;;;4999069;28;19957;-78
2022/06/23 10:55:35;;;;;;;;;;;28.10;90.30;;;;;;5023828;28;19909;-78
2022/06/23 10:58:16;;;;;;;;;;;28.20;89.40;;;;;;4996674;28;19906;-78
2022/06/23 11:00:44;;;;;;;;;;;28.20;88.40;;;;;;4996582;28;19910;-77
2022/06/23 11:03:25;;;;;;;;;;;28.20;88.30;;;;;;4997545;28;19968;-77
2022/06/23 11:05:59;;;;;;;;;;;28.20;88.50;;;;;;4999439;28;19914;-77
2022/06/23 11:08:28;;;;;;;;;;;28.30;88.00;;;;;;4997057;28;19913;-78
2022/06/23 11:11:05;;;;;;;;;;;28.40;88.10;;;;;;4997958;28;19913;-77
2022/06/23 11:13:30;;;;;;;;;;;28.40;87.90;;;;;;4991002;28;19968;-78
2022/06/23 11:16:00;;;;;;;;;;;28.50;87.10;;;;;;4994863;28;19905;-78
2022/06/23 11:18:55;;;;;;;;;;;28.60;87.20;;;;;;4996327;28;19960;-78
2022/06/23 11:21:26;;;;;;;;;;;28.60;85.60;;;;;;4991665;28;19955;-78
2022/06/23 11:23:59;;;;;;;;;;;28.60;84.70;;;;;;4996491;28;19955;-78
2022/06/23 11:26:28;;;;;;;;;;;28.70;84.00;;;;;;4996699;28;19924;-78
2022/06/23 11:29:04;;;;;;;;;;;28.80;83.20;;;;;;4999314;28;19930;-76
2022/06/23 11:31:29;;;;;;;;;;;28.80;83.00;;;;;;4999386;28;20008;-75
2022/06/23 11:33:55;;;;;;;;;;;28.80;82.20;;;;;;5025192;28;20011;-78
2022/06/23 11:36:20;;;;;;;;;;;28.80;82.10;;;;;;5000375;28;19909;-79
2022/06/23 11:38:46;;;;;;;;;;;28.80;80.60;;;;;;4999650;28;20024;-78
2022/06/23 11:41:24;;;;;;;;;;;28.90;80.80;;;;;;4998836;28;20408;-78
2022/06/23 11:43:59;;;;;;;;;;;29.00;79.70;;;;;;4998806;28;19993;-79
2022/06/23 11:46:32;;;;;;;;;;;29.10;78.60;;;;;;5010781;28;20047;-77
2022/06/23 11:49:16;;;;;;;;;;;29.10;79.10;;;;;;4998141;28;19921;-77
2022/06/23 11:51:54;;;;;;;;;;;29.20;77.20;;;;;;4998771;28;19905;-77
2022/06/23 11:54:40;;;;;;;;;;;29.20;77.70;;;;;;4999787;28;20371;-77
2022/06/23 11:57:24;;;;;;;;;;;29.10;77.20;;;;;;5000156;28;19913;-77
2022/06/23 12:00:28;;;;;;;;;;;29.20;76.20;;;;;;5001602;28;19928;-77
2022/06/23 12:03:12;;;;;;;;;;;29.20;75.90;;;;;;5004344;28;20052;-77
2022/06/23 12:05:47;;;;;;;;;;;29.20;74.80;;;;;;5013699;28;19914;-78
2022/06/23 12:08:27;;;;;;;;;;;29.20;74.20;;;;;;5011043;28;19905;-78
2022/06/23 12:10:53;;;;;;;;;;;29.20;74.00;;;;;;5015162;28;19906;-78
2022/06/23 12:13:18;;;;;;;;;;;29.30;74.30;;;;;;5009728;28;19906;-78
2022/06/23 12:15:47;;;;;;;;;;;29.30;73.70;;;;;;4997397;28;20426;-78
2022/06/23 12:18:16;;;;;;;;;;;29.40;70.40;;;;;;4996943;28;19906;-77
2022/06/23 12:20:51;;;;;;;;;;;29.40;69.20;;;;;;4995633;28;20379;-77
2022/06/23 12:23:35;;;;;;;;;;;29.50;69.30;;;;;;4996573;28;20037;-78
2022/06/23 12:26:03;;;;;;;;;;;29.50;69.00;;;;;;4995388;28;20004;-77
2022/06/23 12:28:32;;;;;;;;;;;29.50;68.30;;;;;;4996342;28;19905;-77
2022/06/23 12:31:02;;;;;;;;;;;29.60;67.50;;;;;;4996636;28;19910;-77
2022/06/23 12:33:31;;;;;;;;;;;29.60;67.50;;;;;;4997599;28;20275;-77
2022/06/23 12:35:59;;;;;;;;;;;29.70;68.50;;;;;;4996273;28;19905;-79
2022/06/23 12:38:27;;;;;;;;;;;29.70;69.50;;;;;;4996797;28;19916;-78
2022/06/23 12:40:53;;;;;;;;;;;29.80;68.00;;;;;;4996255;28;19906;-78
2022/06/23 12:43:27;;;;;;;;;;;29.90;68.60;;;;;;4995408;28;19912;-78
2022/06/23 12:46:09;;;;;;;;;;;29.90;68.70;;;;;;4996537;28;19910;-77
2022/06/23 12:48:44;;;;;;;;;;;29.90;66.90;;;;;;4996347;28;19937;-78
2022/06/23 12:51:12;;;;;;;;;;;30.00;66.30;;;;;;4997479;28;19906;-77
2022/06/23 12:53:56;;;;;;;;;;;30.00;64.70;;;;;;4998209;28;19926;-77
2022/06/23 12:56:40;;;;;;;;;;;30.00;65.70;;;;;;4996383;28;19918;-77
2022/06/23 12:59:06;;;;;;;;;;;30.10;65.10;;;;;;4995801;28;19987;-78
2022/06/23 13:01:38;;;;;;;;;;;30.10;65.40;;;;;;4996452;28;19905;-77
2022/06/23 13:04:13;;;;;;;;;;;30.10;65.60;;;;;;4996248;28;19928;-76
2022/06/23 13:06:47;;;;;;;;;;;30.20;66.20;;;;;;4994448;28;19961;-77
2022/06/23 13:09:17;;;;;;;;;;;30.30;64.00;;;;;;4996680;28;20291;-77
2022/06/23 13:11:48;;;;;;;;;;;30.40;62.80;;;;;;4996009;28;19905;-76
2022/06/23 13:14:21;;;;;;;;;;;30.40;62.20;;;;;;4997207;28;19906;-76
2022/06/23 13:17:06;;;;;;;;;;;30.40;62.20;;;;;;4999267;28;19910;-76
2022/06/23 13:19:38;;;;;;;;;;;30.40;61.30;;;;;;4999285;28;19906;-78
2022/06/23 13:22:08;;;;;;;;;;;30.30;61.30;;;;;;5000262;28;19906;-79
2022/06/23 13:24:34;;;;;;;;;;;30.20;61.40;;;;;;4996526;28;19912;-78
2022/06/23 13:27:04;;;;;;;;;;;30.20;59.30;;;;;;4988388;28;20384;-78
2022/06/23 13:29:53;;;;;;;;;;;30.20;59.50;;;;;;4978102;28;19929;-79
2022/06/23 13:32:19;;;;;;;;;;;30.20;59.10;;;;;;4992423;28;19906;-78
2022/06/23 13:34:55;;;;;;;;;;;30.30;59.30;;;;;;4976947;28;19917;-79
2022/06/23 13:37:28;;;;;;;;;;;30.40;58.50;;;;;;4999593;28;20385;-78
2022/06/23 13:39:59;;;;;;;;;;;30.60;57.50;;;;;;4996617;28;19965;-80
2022/06/23 13:42:31;;;;;;;;;;;30.70;58.60;;;;;;4997636;28;19968;-78
2022/06/23 13:45:02;;;;;;;;;;;30.80;59.40;;;;;;4998853;28;19907;-79
2022/06/23 13:47:30;;;;;;;;;;;30.80;59.20;;;;;;4980886;28;19913;-78
2022/06/23 13:49:59;;;;;;;;;;;30.70;58.90;;;;;;4982369;28;19921;-78
2022/06/23 13:52:48;;;;;;;;;;;30.80;58.70;;;;;;4983436;28;19917;-78
2022/06/23 13:55:22;;;;;;;;;;;30.70;58.70;;;;;;4990759;28;19945;-78
2022/06/23 13:57:59;;;;;;;;;;;30.70;58.90;;;;;;5000955;28;19906;-78
2022/06/23 14:00:30;;;;;;;;;;;30.70;57.90;;;;;;4987733;28;19913;-78
2022/06/23 14:03:10;;;;;;;;;;;30.70;57.90;;;;;;4987136;28;19906;-78
2022/06/23 14:05:38;;;;;;;;;;;30.70;57.90;;;;;;4997892;28;19960;-79
2022/06/23 14:08:10;;;;;;;;;;;30.70;58.60;;;;;;4983572;28;19906;-79
2022/06/23 14:10:47;;;;;;;;;;;30.70;57.30;;;;;;4983745;28;19906;-78
2022/06/23 14:13:20;;;;;;;;;;;30.80;57.10;;;;;;5000808;28;19913;-78
2022/06/23 14:15:45;;;;;;;;;;;30.80;57.70;;;;;;5003361;28;19938;-78
2022/06/23 14:18:12;;;;;;;;;;;30.90;55.90;;;;;;5000863;28;20028;-79
2022/06/23 14:20:47;;;;;;;;;;;30.90;55.40;;;;;;4999917;28;19918;-79
2022/06/23 14:23:22;;;;;;;;;;;30.90;55.30;;;;;;5004526;28;19940;-78
2022/06/23 14:25:56;;;;;;;;;;;31.00;55.40;;;;;;5000931;28;19917;-77
2022/06/23 14:28:34;;;;;;;;;;;31.00;55.40;;;;;;5000255;28;19921;-77
2022/06/23 14:31:03;;;;;;;;;;;31.00;54.90;;;;;;5006738;28;19905;-77
2022/06/23 14:33:28;;;;;;;;;;;31.00;55.70;;;;;;5015501;28;19912;-77
2022/06/23 14:35:57;;;;;;;;;;;31.00;56.30;;;;;;5017367;28;19941;-78
2022/06/23 14:38:29;;;;;;;;;;;31.00;55.70;;;;;;5015172;28;19973;-77
2022/06/23 14:40:54;;;;;;;;;;;31.10;55.40;;;;;;5008091;28;19945;-77
2022/06/23 14:43:29;;;;;;;;;;;31.10;55.60;;;;;;5000666;28;19957;-78
2022/06/23 14:46:01;;;;;;;;;;;31.10;55.80;;;;;;5000801;28;19914;-78
2022/06/23 14:48:33;;;;;;;;;;;31.20;55.90;;;;;;4998050;28;19920;-78
2022/06/23 14:51:18;;;;;;;;;;;31.20;54.40;;;;;;4999333;28;19912;-78
2022/06/23 14:53:47;;;;;;;;;;;31.30;54.00;;;;;;4997705;28;19906;-77
2022/06/23 14:56:13;;;;;;;;;;;31.20;54.80;;;;;;4998054;28;19930;-78
2022/06/23 14:58:39;;;;;;;;;;;31.20;55.00;;;;;;5014563;28;19905;-77